sensor_id;sensor_type;location;lat;lon;timestamp;P1;durP1;ratioP1;P2;durP2;ratioP2
43670;SDS011;29267;50.906;7.248;2023-11-25T00:01:04;12.02;;;2.65;;
43670;SDS011;29267;50.906;7.248;2023-11-25T00:03:30;10.27;;;3.72;;
43670;SDS011;29267;50.906;7.248;2023-11-25T00:05:56;14.32;;;4.00;;
43670;SDS011;29267;50.906;7.248;2023-11-25T00:08:21;12.18;;;5.53;;
43670;SDS011;29267;50.906;7.248;2023-11-25T00:10:47;17.70;;;4.57;;
43670;SDS011;29267;50.906;7.248;2023-11-25T00:13:15;15.82;;;4.72;;
43670;SDS011;29267;50.906;7.248;2023-11-25T00:15:40;9.75;;;3.85;;
43670;SDS011;29267;50.906;7.248;2023-11-25T00:18:06;14.63;;;4.32;;
43670;SDS011;29267;50.906;7.248;2023-11-25T00:20:32;8.82;;;3.80;;
43670;SDS011;29267;50.906;7.248;2023-11-25T00:23:01;12.90;;;3.78;;
43670;SDS011;29267;50.906;7.248;2023-11-25T00:25:30;14.05;;;4.60;;
43670;SDS011;29267;50.906;7.248;2023-11-25T00:27:56;12.13;;;4.13;;
43670;SDS011;29267;50.906;7.248;2023-11-25T00:30:22;14.45;;;4.75;;
43670;SDS011;29267;50.906;7.248;2023-11-25T00:32:49;16.30;;;4.50;;
43670;SDS011;29267;50.906;7.248;2023-11-25T00:35:15;16.75;;;5.22;;
43670;SDS011;29267;50.906;7.248;2023-11-25T00:37:41;16.73;;;5.80;;
43670;SDS011;29267;50.906;7.248;2023-11-25T00:40:07;11.18;;;4.68;;
43670;SDS011;29267;50.906;7.248;2023-11-25T00:42:41;13.68;;;4.45;;
43670;SDS011;29267;50.906;7.248;2023-11-25T00:45:08;13.25;;;5.30;;
43670;SDS011;29267;50.906;7.248;2023-11-25T00:47:39;8.95;;;5.15;;
43670;SDS011;29267;50.906;7.248;2023-11-25T00:50:06;15.07;;;4.55;;
43670;SDS011;29267;50.906;7.248;2023-11-25T00:52:36;11.13;;;4.90;;
43670;SDS011;29267;50.906;7.248;2023-11-25T00:55:02;14.60;;;5.13;;
43670;SDS011;29267;50.906;7.248;2023-11-25T00:57:29;19.02;;;5.95;;
43670;SDS011;29267;50.906;7.248;2023-11-25T00:59:54;16.00;;;4.45;;
43670;SDS011;29267;50.906;7.248;2023-11-25T01:02:20;12.90;;;4.53;;
43670;SDS011;29267;50.906;7.248;2023-11-25T01:04:46;14.70;;;4.55;;
43670;SDS011;29267;50.906;7.248;2023-11-25T01:07:11;19.30;;;4.60;;
43670;SDS011;29267;50.906;7.248;2023-11-25T01:09:37;15.52;;;4.88;;
43670;SDS011;29267;50.906;7.248;2023-11-25T01:12:03;15.45;;;5.05;;
43670;SDS011;29267;50.906;7.248;2023-11-25T01:14:30;16.63;;;4.80;;
43670;SDS011;29267;50.906;7.248;2023-11-25T01:16:56;9.35;;;3.80;;
43670;SDS011;29267;50.906;7.248;2023-11-25T01:19:23;13.48;;;4.28;;
43670;SDS011;29267;50.906;7.248;2023-11-25T01:21:49;17.67;;;4.03;;
43670;SDS011;29267;50.906;7.248;2023-11-25T01:24:14;12.55;;;3.47;;
43670;SDS011;29267;50.906;7.248;2023-11-25T01:26:40;23.17;;;4.28;;
43670;SDS011;29267;50.906;7.248;2023-11-25T01:29:06;9.18;;;3.65;;
43670;SDS011;29267;50.906;7.248;2023-11-25T01:31:32;16.27;;;3.42;;
43670;SDS011;29267;50.906;7.248;2023-11-25T01:33:58;15.95;;;3.92;;
43670;SDS011;29267;50.906;7.248;2023-11-25T01:36:24;15.10;;;3.53;;
43670;SDS011;29267;50.906;7.248;2023-11-25T01:38:53;11.13;;;3.60;;
43670;SDS011;29267;50.906;7.248;2023-11-25T01:41:19;9.50;;;3.85;;
43670;SDS011;29267;50.906;7.248;2023-11-25T01:43:45;13.30;;;5.30;;
43670;SDS011;29267;50.906;7.248;2023-11-25T01:46:10;10.55;;;4.15;;
43670;SDS011;29267;50.906;7.248;2023-11-25T01:48:41;13.88;;;4.47;;
43670;SDS011;29267;50.906;7.248;2023-11-25T01:51:08;15.75;;;4.45;;
43670;SDS011;29267;50.906;7.248;2023-11-25T01:53:34;17.42;;;4.25;;
43670;SDS011;29267;50.906;7.248;2023-11-25T01:56:01;19.65;;;3.85;;
43670;SDS011;29267;50.906;7.248;2023-11-25T01:58:27;16.17;;;4.38;;
43670;SDS011;29267;50.906;7.248;2023-11-25T02:00:54;14.70;;;3.78;;
43670;SDS011;29267;50.906;7.248;2023-11-25T02:03:20;7.93;;;2.95;;
43670;SDS011;29267;50.906;7.248;2023-11-25T02:05:47;12.65;;;3.22;;
43670;SDS011;29267;50.906;7.248;2023-11-25T02:08:13;18.65;;;3.58;;
43670;SDS011;29267;50.906;7.248;2023-11-25T02:10:39;17.73;;;3.13;;
43670;SDS011;29267;50.906;7.248;2023-11-25T02:13:05;9.60;;;3.10;;
43670;SDS011;29267;50.906;7.248;2023-11-25T02:15:36;19.27;;;3.83;;
43670;SDS011;29267;50.906;7.248;2023-11-25T02:18:03;21.55;;;3.80;;
43670;SDS011;29267;50.906;7.248;2023-11-25T02:22:56;13.93;;;3.40;;
43670;SDS011;29267;50.906;7.248;2023-11-25T02:25:22;13.15;;;2.55;;
43670;SDS011;29267;50.906;7.248;2023-11-25T02:27:49;14.75;;;2.53;;
43670;SDS011;29267;50.906;7.248;2023-11-25T02:30:15;14.25;;;2.60;;
43670;SDS011;29267;50.906;7.248;2023-11-25T02:32:42;16.98;;;3.67;;
43670;SDS011;29267;50.906;7.248;2023-11-25T02:35:09;12.20;;;3.25;;
43670;SDS011;29267;50.906;7.248;2023-11-25T02:37:37;6.97;;;3.40;;
43670;SDS011;29267;50.906;7.248;2023-11-25T02:40:03;20.98;;;3.03;;
43670;SDS011;29267;50.906;7.248;2023-11-25T02:42:30;17.23;;;2.45;;
43670;SDS011;29267;50.906;7.248;2023-11-25T02:44:56;19.40;;;2.38;;
43670;SDS011;29267;50.906;7.248;2023-11-25T02:47:21;19.27;;;3.08;;
43670;SDS011;29267;50.906;7.248;2023-11-25T02:49:48;11.23;;;2.53;;
43670;SDS011;29267;50.906;7.248;2023-11-25T02:52:15;12.90;;;2.90;;
43670;SDS011;29267;50.906;7.248;2023-11-25T02:54:41;13.98;;;1.80;;
43670;SDS011;29267;50.906;7.248;2023-11-25T02:57:06;9.27;;;2.92;;
43670;SDS011;29267;50.906;7.248;2023-11-25T02:59:34;13.07;;;3.25;;
43670;SDS011;29267;50.906;7.248;2023-11-25T03:02:00;17.35;;;3.10;;
43670;SDS011;29267;50.906;7.248;2023-11-25T03:04:34;11.35;;;2.65;;
43670;SDS011;29267;50.906;7.248;2023-11-25T03:07:02;22.83;;;3.35;;
43670;SDS011;29267;50.906;7.248;2023-11-25T03:09:30;17.30;;;3.00;;
43670;SDS011;29267;50.906;7.248;2023-11-25T03:11:56;20.15;;;3.55;;
43670;SDS011;29267;50.906;7.248;2023-11-25T03:14:23;12.43;;;2.70;;
43670;SDS011;29267;50.906;7.248;2023-11-25T03:16:51;20.35;;;3.20;;
43670;SDS011;29267;50.906;7.248;2023-11-25T03:19:19;11.30;;;2.70;;
43670;SDS011;29267;50.906;7.248;2023-11-25T03:21:45;13.52;;;3.22;;
43670;SDS011;29267;50.906;7.248;2023-11-25T03:24:11;16.75;;;3.20;;
43670;SDS011;29267;50.906;7.248;2023-11-25T03:26:36;18.95;;;3.15;;
43670;SDS011;29267;50.906;7.248;2023-11-25T03:29:03;13.02;;;3.78;;
43670;SDS011;29267;50.906;7.248;2023-11-25T03:31:29;23.13;;;3.90;;
43670;SDS011;29267;50.906;7.248;2023-11-25T03:33:55;14.15;;;2.90;;
43670;SDS011;29267;50.906;7.248;2023-11-25T03:36:21;14.55;;;3.40;;
43670;SDS011;29267;50.906;7.248;2023-11-25T03:38:47;25.88;;;3.47;;
43670;SDS011;29267;50.906;7.248;2023-11-25T03:41:13;24.95;;;4.50;;
43670;SDS011;29267;50.906;7.248;2023-11-25T03:43:39;20.60;;;4.40;;
43670;SDS011;29267;50.906;7.248;2023-11-25T03:46:05;28.25;;;3.63;;
43670;SDS011;29267;50.906;7.248;2023-11-25T03:48:31;15.45;;;3.92;;
43670;SDS011;29267;50.906;7.248;2023-11-25T03:50:58;27.35;;;3.80;;
43670;SDS011;29267;50.906;7.248;2023-11-25T03:53:24;24.17;;;3.50;;
43670;SDS011;29267;50.906;7.248;2023-11-25T03:55:50;31.23;;;3.70;;
43670;SDS011;29267;50.906;7.248;2023-11-25T03:58:15;20.52;;;3.92;;
43670;SDS011;29267;50.906;7.248;2023-11-25T04:00:44;26.90;;;3.67;;
43670;SDS011;29267;50.906;7.248;2023-11-25T04:03:10;21.73;;;3.55;;
43670;SDS011;29267;50.906;7.248;2023-11-25T04:05:35;20.38;;;3.92;;
43670;SDS011;29267;50.906;7.248;2023-11-25T04:08:01;22.38;;;3.55;;
43670;SDS011;29267;50.906;7.248;2023-11-25T04:10:27;8.10;;;2.28;;
43670;SDS011;29267;50.906;7.248;2023-11-25T04:12:52;15.05;;;3.53;;
43670;SDS011;29267;50.906;7.248;2023-11-25T04:15:20;16.40;;;3.70;;
43670;SDS011;29267;50.906;7.248;2023-11-25T04:17:46;18.73;;;4.45;;
43670;SDS011;29267;50.906;7.248;2023-11-25T04:20:13;7.55;;;3.45;;
43670;SDS011;29267;50.906;7.248;2023-11-25T04:22:42;22.10;;;3.53;;
43670;SDS011;29267;50.906;7.248;2023-11-25T04:25:09;13.93;;;4.40;;
43670;SDS011;29267;50.906;7.248;2023-11-25T04:27:44;41.78;;;4.20;;
43670;SDS011;29267;50.906;7.248;2023-11-25T04:30:14;29.10;;;4.20;;
43670;SDS011;29267;50.906;7.248;2023-11-25T04:32:42;17.42;;;3.22;;
43670;SDS011;29267;50.906;7.248;2023-11-25T04:35:09;24.17;;;3.67;;
43670;SDS011;29267;50.906;7.248;2023-11-25T04:37:35;35.85;;;3.83;;
43670;SDS011;29267;50.906;7.248;2023-11-25T04:40:04;36.80;;;3.67;;
43670;SDS011;29267;50.906;7.248;2023-11-25T04:42:31;17.23;;;3.38;;
43670;SDS011;29267;50.906;7.248;2023-11-25T04:44:57;11.80;;;4.07;;
43670;SDS011;29267;50.906;7.248;2023-11-25T04:47:23;23.30;;;4.32;;
43670;SDS011;29267;50.906;7.248;2023-11-25T04:49:49;17.40;;;2.97;;
43670;SDS011;29267;50.906;7.248;2023-11-25T04:52:15;21.55;;;3.05;;
43670;SDS011;29267;50.906;7.248;2023-11-25T04:54:41;17.30;;;4.00;;
43670;SDS011;29267;50.906;7.248;2023-11-25T04:57:09;25.38;;;3.20;;
43670;SDS011;29267;50.906;7.248;2023-11-25T04:59:34;22.02;;;3.67;;
43670;SDS011;29267;50.906;7.248;2023-11-25T05:02:01;30.70;;;4.15;;
43670;SDS011;29267;50.906;7.248;2023-11-25T05:04:27;21.80;;;3.95;;
43670;SDS011;29267;50.906;7.248;2023-11-25T05:06:53;19.70;;;3.17;;
43670;SDS011;29267;50.906;7.248;2023-11-25T05:09:19;30.00;;;3.85;;
43670;SDS011;29267;50.906;7.248;2023-11-25T05:11:45;22.35;;;3.00;;
43670;SDS011;29267;50.906;7.248;2023-11-25T05:14:11;12.38;;;3.28;;
43670;SDS011;29267;50.906;7.248;2023-11-25T05:16:37;24.52;;;4.20;;
43670;SDS011;29267;50.906;7.248;2023-11-25T05:19:04;17.00;;;3.80;;
43670;SDS011;29267;50.906;7.248;2023-11-25T05:21:30;23.45;;;3.97;;
43670;SDS011;29267;50.906;7.248;2023-11-25T05:23:55;18.15;;;4.28;;
43670;SDS011;29267;50.906;7.248;2023-11-25T05:26:22;21.02;;;3.50;;
43670;SDS011;29267;50.906;7.248;2023-11-25T05:28:48;17.85;;;2.90;;
43670;SDS011;29267;50.906;7.248;2023-11-25T05:31:15;15.10;;;3.28;;
43670;SDS011;29267;50.906;7.248;2023-11-25T05:33:41;20.17;;;3.08;;
43670;SDS011;29267;50.906;7.248;2023-11-25T05:36:08;14.25;;;3.42;;
43670;SDS011;29267;50.906;7.248;2023-11-25T05:38:34;19.60;;;3.67;;
43670;SDS011;29267;50.906;7.248;2023-11-25T05:41:00;15.63;;;2.70;;
43670;SDS011;29267;50.906;7.248;2023-11-25T05:43:29;22.10;;;4.72;;
43670;SDS011;29267;50.906;7.248;2023-11-25T05:45:55;21.50;;;3.67;;
43670;SDS011;29267;50.906;7.248;2023-11-25T05:48:23;9.80;;;2.72;;
43670;SDS011;29267;50.906;7.248;2023-11-25T11:04:20;32.67;;;8.60;;
43670;SDS011;29267;50.906;7.248;2023-11-25T11:14:55;8.82;;;2.38;;
43670;SDS011;29267;50.906;7.248;2023-11-25T11:21:19;13.18;;;2.22;;
43670;SDS011;29267;50.906;7.248;2023-11-25T11:24:18;10.77;;;2.00;;
43670;SDS011;29267;50.906;7.248;2023-11-25T11:36:53;7.03;;;1.60;;
43670;SDS011;29267;50.906;7.248;2023-11-25T11:39:54;5.60;;;1.50;;
43670;SDS011;29267;50.906;7.248;2023-11-25T11:42:28;4.13;;;1.67;;
43670;SDS011;29267;50.906;7.248;2023-11-25T11:45:29;13.75;;;2.20;;
43670;SDS011;29267;50.906;7.248;2023-11-25T11:51:17;11.45;;;2.00;;
43670;SDS011;29267;50.906;7.248;2023-11-25T11:57:02;4.70;;;1.30;;
43670;SDS011;29267;50.906;7.248;2023-11-25T12:02:55;5.38;;;1.35;;
43670;SDS011;29267;50.906;7.248;2023-11-25T12:12:01;45.85;;;19.48;;
43670;SDS011;29267;50.906;7.248;2023-11-25T12:14:39;14.48;;;2.85;;
43670;SDS011;29267;50.906;7.248;2023-11-25T12:17:20;10.57;;;1.80;;
43670;SDS011;29267;50.906;7.248;2023-11-25T12:19:53;9.30;;;2.00;;
43670;SDS011;29267;50.906;7.248;2023-11-25T12:25:41;7.93;;;2.05;;
43670;SDS011;29267;50.906;7.248;2023-11-25T12:28:15;10.55;;;2.25;;
43670;SDS011;29267;50.906;7.248;2023-11-25T12:30:42;14.00;;;2.28;;
43670;SDS011;29267;50.906;7.248;2023-11-25T12:33:17;5.38;;;1.63;;
43670;SDS011;29267;50.906;7.248;2023-11-25T12:36:37;9.43;;;2.22;;
43670;SDS011;29267;50.906;7.248;2023-11-25T12:39:03;9.48;;;1.80;;
43670;SDS011;29267;50.906;7.248;2023-11-25T12:41:35;9.45;;;1.88;;
43670;SDS011;29267;50.906;7.248;2023-11-25T12:44:03;2.83;;;1.13;;
43670;SDS011;29267;50.906;7.248;2023-11-25T12:46:31;6.30;;;1.20;;
43670;SDS011;29267;50.906;7.248;2023-11-25T12:48:57;6.03;;;1.15;;
43670;SDS011;29267;50.906;7.248;2023-11-25T12:51:24;3.78;;;1.27;;
43670;SDS011;29267;50.906;7.248;2023-11-25T12:53:51;8.15;;;1.23;;
43670;SDS011;29267;50.906;7.248;2023-11-25T12:56:18;7.25;;;1.60;;
43670;SDS011;29267;50.906;7.248;2023-11-25T12:58:46;7.15;;;1.42;;
43670;SDS011;29267;50.906;7.248;2023-11-25T13:01:13;11.20;;;1.15;;
43670;SDS011;29267;50.906;7.248;2023-11-25T13:03:38;6.75;;;1.20;;
43670;SDS011;29267;50.906;7.248;2023-11-25T13:06:07;12.85;;;2.08;;
43670;SDS011;29267;50.906;7.248;2023-11-25T13:08:37;6.28;;;1.45;;
43670;SDS011;29267;50.906;7.248;2023-11-25T13:11:10;9.30;;;1.73;;
43670;SDS011;29267;50.906;7.248;2023-11-25T13:13:36;3.30;;;1.10;;
43670;SDS011;29267;50.906;7.248;2023-11-25T13:16:05;10.32;;;1.48;;
43670;SDS011;29267;50.906;7.248;2023-11-25T13:18:33;5.22;;;1.48;;
43670;SDS011;29267;50.906;7.248;2023-11-25T13:20:59;5.05;;;2.15;;
43670;SDS011;29267;50.906;7.248;2023-11-25T13:23:32;13.33;;;3.33;;
43670;SDS011;29267;50.906;7.248;2023-11-25T13:25:59;12.70;;;4.47;;
43670;SDS011;29267;50.906;7.248;2023-11-25T13:28:24;10.55;;;2.25;;
43670;SDS011;29267;50.906;7.248;2023-11-25T13:30:50;18.35;;;3.67;;
43670;SDS011;29267;50.906;7.248;2023-11-25T13:33:16;6.28;;;1.70;;
43670;SDS011;29267;50.906;7.248;2023-11-25T13:35:43;5.80;;;1.67;;
43670;SDS011;29267;50.906;7.248;2023-11-25T13:38:10;13.13;;;2.58;;
43670;SDS011;29267;50.906;7.248;2023-11-25T13:40:37;6.65;;;1.92;;
43670;SDS011;29267;50.906;7.248;2023-11-25T13:43:05;12.95;;;2.17;;
43670;SDS011;29267;50.906;7.248;2023-11-25T13:45:32;19.88;;;4.22;;
43670;SDS011;29267;50.906;7.248;2023-11-25T13:47:58;6.45;;;1.98;;
43670;SDS011;29267;50.906;7.248;2023-11-25T13:50:29;7.78;;;2.35;;
43670;SDS011;29267;50.906;7.248;2023-11-25T13:52:59;13.00;;;2.00;;
43670;SDS011;29267;50.906;7.248;2023-11-25T13:55:26;8.10;;;2.45;;
43670;SDS011;29267;50.906;7.248;2023-11-25T13:57:52;10.65;;;2.33;;
43670;SDS011;29267;50.906;7.248;2023-11-25T14:00:19;8.70;;;1.73;;
43670;SDS011;29267;50.906;7.248;2023-11-25T14:02:47;15.45;;;2.28;;
43670;SDS011;29267;50.906;7.248;2023-11-25T14:05:14;13.38;;;1.75;;
43670;SDS011;29267;50.906;7.248;2023-11-25T14:07:40;14.68;;;3.15;;
43670;SDS011;29267;50.906;7.248;2023-11-25T14:10:10;8.77;;;1.58;;
43670;SDS011;29267;50.906;7.248;2023-11-25T14:12:40;12.07;;;2.42;;
43670;SDS011;29267;50.906;7.248;2023-11-25T14:15:07;8.65;;;1.35;;
43670;SDS011;29267;50.906;7.248;2023-11-25T14:17:35;8.38;;;1.88;;
43670;SDS011;29267;50.906;7.248;2023-11-25T14:20:05;6.70;;;1.40;;
43670;SDS011;29267;50.906;7.248;2023-11-25T14:22:42;6.72;;;1.58;;
43670;SDS011;29267;50.906;7.248;2023-11-25T14:25:15;14.18;;;1.85;;
43670;SDS011;29267;50.906;7.248;2023-11-25T14:27:43;9.70;;;1.42;;
43670;SDS011;29267;50.906;7.248;2023-11-25T14:30:10;6.53;;;1.35;;
43670;SDS011;29267;50.906;7.248;2023-11-25T14:32:38;6.40;;;1.65;;
43670;SDS011;29267;50.906;7.248;2023-11-25T14:35:05;10.27;;;1.23;;
43670;SDS011;29267;50.906;7.248;2023-11-25T14:37:31;3.88;;;0.85;;
43670;SDS011;29267;50.906;7.248;2023-11-25T14:40:03;5.20;;;1.08;;
43670;SDS011;29267;50.906;7.248;2023-11-25T14:42:31;8.50;;;1.30;;
43670;SDS011;29267;50.906;7.248;2023-11-25T14:44:59;6.65;;;2.25;;
43670;SDS011;29267;50.906;7.248;2023-11-25T14:47:25;9.95;;;1.55;;
43670;SDS011;29267;50.906;7.248;2023-11-25T14:49:51;5.25;;;1.73;;
43670;SDS011;29267;50.906;7.248;2023-11-25T14:52:18;3.08;;;1.75;;
43670;SDS011;29267;50.906;7.248;2023-11-25T14:54:44;6.55;;;1.50;;
43670;SDS011;29267;50.906;7.248;2023-11-25T14:57:10;7.80;;;1.42;;
43670;SDS011;29267;50.906;7.248;2023-11-25T14:59:36;7.82;;;1.30;;
43670;SDS011;29267;50.906;7.248;2023-11-25T15:02:02;7.95;;;1.25;;
43670;SDS011;29267;50.906;7.248;2023-11-25T15:04:28;5.55;;;1.70;;
43670;SDS011;29267;50.906;7.248;2023-11-25T15:06:54;6.90;;;1.35;;
43670;SDS011;29267;50.906;7.248;2023-11-25T15:09:21;5.55;;;1.33;;
43670;SDS011;29267;50.906;7.248;2023-11-25T15:11:48;4.60;;;1.60;;
43670;SDS011;29267;50.906;7.248;2023-11-25T15:14:14;9.45;;;2.47;;
43670;SDS011;29267;50.906;7.248;2023-11-25T15:16:40;11.18;;;3.33;;
43670;SDS011;29267;50.906;7.248;2023-11-25T15:19:06;4.47;;;1.60;;
43670;SDS011;29267;50.906;7.248;2023-11-25T15:21:32;3.35;;;1.13;;
43670;SDS011;29267;50.906;7.248;2023-11-25T15:23:58;3.95;;;0.88;;
43670;SDS011;29267;50.906;7.248;2023-11-25T15:26:24;6.55;;;1.17;;
43670;SDS011;29267;50.906;7.248;2023-11-25T15:28:51;2.08;;;1.20;;
43670;SDS011;29267;50.906;7.248;2023-11-25T15:31:20;7.80;;;1.23;;
43670;SDS011;29267;50.906;7.248;2023-11-25T15:33:47;10.25;;;1.52;;
43670;SDS011;29267;50.906;7.248;2023-11-25T15:36:14;9.55;;;2.15;;
43670;SDS011;29267;50.906;7.248;2023-11-25T15:38:41;3.28;;;1.70;;
43670;SDS011;29267;50.906;7.248;2023-11-25T15:41:07;6.55;;;1.77;;
43670;SDS011;29267;50.906;7.248;2023-11-25T15:43:35;5.63;;;1.98;;
43670;SDS011;29267;50.906;7.248;2023-11-25T15:46:02;9.60;;;1.80;;
43670;SDS011;29267;50.906;7.248;2023-11-25T15:48:30;5.28;;;1.50;;
43670;SDS011;29267;50.906;7.248;2023-11-25T15:50:57;6.32;;;1.75;;
43670;SDS011;29267;50.906;7.248;2023-11-25T15:53:24;10.32;;;2.50;;
43670;SDS011;29267;50.906;7.248;2023-11-25T15:55:50;7.32;;;1.70;;
43670;SDS011;29267;50.906;7.248;2023-11-25T15:58:16;13.23;;;1.63;;
43670;SDS011;29267;50.906;7.248;2023-11-25T16:00:44;16.58;;;5.20;;
43670;SDS011;29267;50.906;7.248;2023-11-25T16:03:10;13.60;;;4.80;;
43670;SDS011;29267;50.906;7.248;2023-11-25T16:05:36;11.10;;;2.40;;
43670;SDS011;29267;50.906;7.248;2023-11-25T16:08:02;18.63;;;2.63;;
43670;SDS011;29267;50.906;7.248;2023-11-25T16:10:29;7.45;;;2.60;;
43670;SDS011;29267;50.906;7.248;2023-11-25T16:12:57;9.10;;;2.10;;
43670;SDS011;29267;50.906;7.248;2023-11-25T16:15:26;12.43;;;2.65;;
43670;SDS011;29267;50.906;7.248;2023-11-25T16:17:53;18.20;;;4.97;;
43670;SDS011;29267;50.906;7.248;2023-11-25T16:20:19;14.07;;;3.03;;
43670;SDS011;29267;50.906;7.248;2023-11-25T16:22:45;14.00;;;2.42;;
43670;SDS011;29267;50.906;7.248;2023-11-25T16:25:13;6.35;;;2.83;;
43670;SDS011;29267;50.906;7.248;2023-11-25T16:27:39;13.60;;;2.97;;
43670;SDS011;29267;50.906;7.248;2023-11-25T16:30:05;23.60;;;2.55;;
43670;SDS011;29267;50.906;7.248;2023-11-25T16:32:33;6.97;;;2.65;;
43670;SDS011;29267;50.906;7.248;2023-11-25T16:34:59;13.98;;;2.15;;
43670;SDS011;29267;50.906;7.248;2023-11-25T16:37:25;9.32;;;2.78;;
43670;SDS011;29267;50.906;7.248;2023-11-25T16:39:51;16.20;;;3.70;;
43670;SDS011;29267;50.906;7.248;2023-11-25T16:42:17;12.50;;;3.75;;
43670;SDS011;29267;50.906;7.248;2023-11-25T16:44:43;15.60;;;3.25;;
43670;SDS011;29267;50.906;7.248;2023-11-25T16:47:09;10.32;;;3.72;;
43670;SDS011;29267;50.906;7.248;2023-11-25T16:49:35;24.48;;;3.70;;
43670;SDS011;29267;50.906;7.248;2023-11-25T16:52:01;15.40;;;3.60;;
43670;SDS011;29267;50.906;7.248;2023-11-25T16:54:27;13.18;;;3.03;;
43670;SDS011;29267;50.906;7.248;2023-11-25T16:56:53;13.98;;;3.25;;
43670;SDS011;29267;50.906;7.248;2023-11-25T16:59:19;11.75;;;2.65;;
43670;SDS011;29267;50.906;7.248;2023-11-25T17:01:46;8.45;;;2.85;;
43670;SDS011;29267;50.906;7.248;2023-11-25T17:04:12;7.53;;;2.33;;
43670;SDS011;29267;50.906;7.248;2023-11-25T17:06:38;11.57;;;2.90;;
43670;SDS011;29267;50.906;7.248;2023-11-25T17:09:04;13.50;;;2.60;;
43670;SDS011;29267;50.906;7.248;2023-11-25T17:11:30;10.50;;;2.72;;
43670;SDS011;29267;50.906;7.248;2023-11-25T17:13:56;18.17;;;2.90;;
43670;SDS011;29267;50.906;7.248;2023-11-25T17:16:22;25.52;;;4.50;;
43670;SDS011;29267;50.906;7.248;2023-11-25T17:18:53;16.83;;;3.05;;
43670;SDS011;29267;50.906;7.248;2023-11-25T17:21:19;15.93;;;2.35;;
43670;SDS011;29267;50.906;7.248;2023-11-25T17:23:45;11.05;;;3.30;;
43670;SDS011;29267;50.906;7.248;2023-11-25T17:26:11;11.23;;;2.80;;
43670;SDS011;29267;50.906;7.248;2023-11-25T17:28:37;11.00;;;2.42;;
43670;SDS011;29267;50.906;7.248;2023-11-25T17:31:03;13.25;;;3.10;;
43670;SDS011;29267;50.906;7.248;2023-11-25T17:33:29;18.10;;;3.00;;
43670;SDS011;29267;50.906;7.248;2023-11-25T17:35:55;18.23;;;2.25;;
43670;SDS011;29267;50.906;7.248;2023-11-25T17:38:21;8.63;;;2.30;;
43670;SDS011;29267;50.906;7.248;2023-11-25T17:40:50;10.45;;;2.80;;
43670;SDS011;29267;50.906;7.248;2023-11-25T17:43:16;8.38;;;1.98;;
43670;SDS011;29267;50.906;7.248;2023-11-25T17:45:44;3.28;;;1.35;;
43670;SDS011;29267;50.906;7.248;2023-11-25T17:48:12;8.60;;;1.63;;
43670;SDS011;29267;50.906;7.248;2023-11-25T17:50:38;7.05;;;2.10;;
43670;SDS011;29267;50.906;7.248;2023-11-25T17:53:03;8.00;;;1.45;;
43670;SDS011;29267;50.906;7.248;2023-11-25T17:55:30;5.25;;;1.60;;
43670;SDS011;29267;50.906;7.248;2023-11-25T17:57:56;8.25;;;2.20;;
43670;SDS011;29267;50.906;7.248;2023-11-25T18:00:22;4.75;;;2.25;;
43670;SDS011;29267;50.906;7.248;2023-11-25T18:02:48;4.35;;;1.80;;
43670;SDS011;29267;50.906;7.248;2023-11-25T18:05:14;8.55;;;1.45;;
43670;SDS011;29267;50.906;7.248;2023-11-25T18:07:40;5.40;;;1.08;;
43670;SDS011;29267;50.906;7.248;2023-11-25T18:10:07;2.60;;;1.00;;
43670;SDS011;29267;50.906;7.248;2023-11-25T18:12:35;7.00;;;1.08;;
43670;SDS011;29267;50.906;7.248;2023-11-25T18:15:01;7.28;;;1.23;;
43670;SDS011;29267;50.906;7.248;2023-11-25T18:17:27;4.13;;;1.20;;
43670;SDS011;29267;50.906;7.248;2023-11-25T18:19:53;1.73;;;0.65;;
43670;SDS011;29267;50.906;7.248;2023-11-25T18:22:19;3.63;;;1.67;;
43670;SDS011;29267;50.906;7.248;2023-11-25T18:24:45;5.22;;;2.42;;
43670;SDS011;29267;50.906;7.248;2023-11-25T18:27:10;9.55;;;2.83;;
43670;SDS011;29267;50.906;7.248;2023-11-25T18:29:36;5.47;;;2.25;;
43670;SDS011;29267;50.906;7.248;2023-11-25T18:32:02;4.55;;;1.85;;
43670;SDS011;29267;50.906;7.248;2023-11-25T18:34:28;10.80;;;3.00;;
43670;SDS011;29267;50.906;7.248;2023-11-25T18:36:54;6.00;;;3.25;;
43670;SDS011;29267;50.906;7.248;2023-11-25T18:39:21;12.18;;;2.85;;
43670;SDS011;29267;50.906;7.248;2023-11-25T18:41:49;7.63;;;3.72;;
43670;SDS011;29267;50.906;7.248;2023-11-25T18:44:15;4.82;;;2.17;;
43670;SDS011;29267;50.906;7.248;2023-11-25T18:46:41;5.63;;;2.88;;
43670;SDS011;29267;50.906;7.248;2023-11-25T18:49:07;11.52;;;2.05;;
43670;SDS011;29267;50.906;7.248;2023-11-25T18:51:34;7.40;;;2.60;;
43670;SDS011;29267;50.906;7.248;2023-11-25T18:54:03;8.88;;;3.17;;
43670;SDS011;29267;50.906;7.248;2023-11-25T18:56:29;8.93;;;2.78;;
43670;SDS011;29267;50.906;7.248;2023-11-25T18:58:55;6.20;;;1.88;;
43670;SDS011;29267;50.906;7.248;2023-11-25T19:01:31;10.82;;;2.90;;
43670;SDS011;29267;50.906;7.248;2023-11-25T19:03:58;9.55;;;3.03;;
43670;SDS011;29267;50.906;7.248;2023-11-25T19:06:24;8.35;;;2.95;;
43670;SDS011;29267;50.906;7.248;2023-11-25T19:08:51;7.13;;;2.50;;
43670;SDS011;29267;50.906;7.248;2023-11-25T19:11:17;11.77;;;2.90;;
43670;SDS011;29267;50.906;7.248;2023-11-25T19:13:43;12.65;;;4.10;;
43670;SDS011;29267;50.906;7.248;2023-11-25T19:16:09;7.15;;;3.63;;
43670;SDS011;29267;50.906;7.248;2023-11-25T19:18:35;16.05;;;5.28;;
43670;SDS011;29267;50.906;7.248;2023-11-25T19:21:01;25.92;;;7.05;;
43670;SDS011;29267;50.906;7.248;2023-11-25T19:23:29;17.73;;;6.03;;
43670;SDS011;29267;50.906;7.248;2023-11-25T19:25:58;23.05;;;9.88;;
43670;SDS011;29267;50.906;7.248;2023-11-25T19:28:25;16.48;;;6.40;;
43670;SDS011;29267;50.906;7.248;2023-11-25T19:30:51;30.90;;;10.40;;
43670;SDS011;29267;50.906;7.248;2023-11-25T19:33:17;21.13;;;8.30;;
43670;SDS011;29267;50.906;7.248;2023-11-25T19:35:43;29.65;;;10.27;;
43670;SDS011;29267;50.906;7.248;2023-11-25T19:38:08;31.08;;;10.52;;
43670;SDS011;29267;50.906;7.248;2023-11-25T19:40:36;24.60;;;6.57;;
43670;SDS011;29267;50.906;7.248;2023-11-25T19:43:02;13.77;;;5.55;;
43670;SDS011;29267;50.906;7.248;2023-11-25T19:45:27;41.13;;;14.10;;
43670;SDS011;29267;50.906;7.248;2023-11-25T19:47:54;74.57;;;27.52;;
43670;SDS011;29267;50.906;7.248;2023-11-25T19:50:19;61.92;;;21.85;;
43670;SDS011;29267;50.906;7.248;2023-11-25T19:52:45;21.63;;;6.65;;
43670;SDS011;29267;50.906;7.248;2023-11-25T19:55:11;20.25;;;6.38;;
43670;SDS011;29267;50.906;7.248;2023-11-25T19:57:37;11.60;;;6.20;;
43670;SDS011;29267;50.906;7.248;2023-11-25T20:00:04;42.75;;;12.95;;
43670;SDS011;29267;50.906;7.248;2023-11-25T20:02:32;23.65;;;9.90;;
43670;SDS011;29267;50.906;7.248;2023-11-25T20:04:57;28.20;;;10.93;;
43670;SDS011;29267;50.906;7.248;2023-11-25T20:07:23;32.83;;;13.18;;
43670;SDS011;29267;50.906;7.248;2023-11-25T20:09:49;28.63;;;10.68;;
43670;SDS011;29267;50.906;7.248;2023-11-25T20:12:15;28.55;;;10.00;;
43670;SDS011;29267;50.906;7.248;2023-11-25T20:14:41;24.20;;;8.80;;
43670;SDS011;29267;50.906;7.248;2023-11-25T20:17:07;20.23;;;6.63;;
43670;SDS011;29267;50.906;7.248;2023-11-25T20:19:33;17.65;;;5.93;;
43670;SDS011;29267;50.906;7.248;2023-11-25T20:21:58;22.17;;;6.05;;
43670;SDS011;29267;50.906;7.248;2023-11-25T20:24:24;17.13;;;6.75;;
43670;SDS011;29267;50.906;7.248;2023-11-25T20:26:50;27.30;;;7.65;;
43670;SDS011;29267;50.906;7.248;2023-11-25T20:29:17;25.38;;;8.80;;
43670;SDS011;29267;50.906;7.248;2023-11-25T20:31:43;28.75;;;9.20;;
43670;SDS011;29267;50.906;7.248;2023-11-25T20:34:10;24.42;;;9.57;;
43670;SDS011;29267;50.906;7.248;2023-11-25T20:36:36;20.27;;;8.55;;